sensor_id;sensor_type;location;lat;lon;timestamp;temperature;humidity
20231;DHT22;10274;49.022;9.338;2023-02-28T00:00:48;-1.90;1.00
20231;DHT22;10274;49.022;9.338;2023-02-28T00:03:14;-1.70;1.00
20231;DHT22;10274;49.022;9.338;2023-02-28T00:05:41;-1.50;99.90
20231;DHT22;10274;49.022;9.338;2023-02-28T00:08:08;-1.20;99.90
20231;DHT22;10274;49.022;9.338;2023-02-28T00:10:35;-1.10;1.00
20231;DHT22;10274;49.022;9.338;2023-02-28T00:13:05;-1.00;1.00
20231;DHT22;10274;49.022;9.338;2023-02-28T00:15:33;-1.00;1.00
20231;DHT22;10274;49.022;9.338;2023-02-28T00:17:59;-0.90;99.90
20231;DHT22;10274;49.022;9.338;2023-02-28T00:20:26;-0.80;99.90
20231;DHT22;10274;49.022;9.338;2023-02-28T00:22:53;-0.70;99.90
20231;DHT22;10274;49.022;9.338;2023-02-28T00:25:22;-0.70;99.90
20231;DHT22;10274;49.022;9.338;2023-02-28T00:27:49;-0.70;99.90
20231;DHT22;10274;49.022;9.338;2023-02-28T00:30:18;-0.70;96.80
20231;DHT22;10274;49.022;9.338;2023-02-28T00:32:45;-0.80;99.90
20231;DHT22;10274;49.022;9.338;2023-02-28T00:35:13;-0.80;76.90
20231;DHT22;10274;49.022;9.338;2023-02-28T00:37:39;-0.70;91.10
20231;DHT22;10274;49.022;9.338;2023-02-28T00:40:08;-0.60;99.90
20231;DHT22;10274;49.022;9.338;2023-02-28T00:42:36;-0.70;99.90
20231;DHT22;10274;49.022;9.338;2023-02-28T00:45:04;-0.60;1.00
20231;DHT22;10274;49.022;9.338;2023-02-28T00:47:32;-0.60;64.60
20231;DHT22;10274;49.022;9.338;2023-02-28T00:49:59;-0.70;98.40
20231;DHT22;10274;49.022;9.338;2023-02-28T00:52:26;-0.70;99.90
20231;DHT22;10274;49.022;9.338;2023-02-28T00:54:53;-0.70;99.90
20231;DHT22;10274;49.022;9.338;2023-02-28T00:57:19;-0.60;1.00
20231;DHT22;10274;49.022;9.338;2023-02-28T00:59:46;-0.60;99.90
20231;DHT22;10274;49.022;9.338;2023-02-28T01:02:13;-0.60;77.80
20231;DHT22;10274;49.022;9.338;2023-02-28T01:04:41;-0.60;99.90
20231;DHT22;10274;49.022;9.338;2023-02-28T01:07:07;-0.70;99.90
20231;DHT22;10274;49.022;9.338;2023-02-28T01:09:34;-0.70;99.90
20231;DHT22;10274;49.022;9.338;2023-02-28T01:12:01;-0.70;99.90
20231;DHT22;10274;49.022;9.338;2023-02-28T01:14:28;-0.60;99.90
20231;DHT22;10274;49.022;9.338;2023-02-28T01:16:54;-0.60;99.90
20231;DHT22;10274;49.022;9.338;2023-02-28T01:19:21;-0.60;95.90
20231;DHT22;10274;49.022;9.338;2023-02-28T01:21:49;-0.60;99.90
20231;DHT22;10274;49.022;9.338;2023-02-28T01:24:15;-0.70;99.90
20231;DHT22;10274;49.022;9.338;2023-02-28T01:26:42;-0.70;99.90
20231;DHT22;10274;49.022;9.338;2023-02-28T01:29:09;-0.70;99.90
20231;DHT22;10274;49.022;9.338;2023-02-28T01:31:36;-0.70;99.90
20231;DHT22;10274;49.022;9.338;2023-02-28T01:34:03;-0.70;99.90
20231;DHT22;10274;49.022;9.338;2023-02-28T01:36:30;-0.60;99.90
20231;DHT22;10274;49.022;9.338;2023-02-28T01:38:58;-0.70;99.90
20231;DHT22;10274;49.022;9.338;2023-02-28T01:41:27;-0.70;99.90
20231;DHT22;10274;49.022;9.338;2023-02-28T01:43:56;-0.80;1.00
20231;DHT22;10274;49.022;9.338;2023-02-28T01:46:24;-0.80;99.90
20231;DHT22;10274;49.022;9.338;2023-02-28T01:48:53;-0.90;1.00
20231;DHT22;10274;49.022;9.338;2023-02-28T01:51:24;-0.90;1.00
20231;DHT22;10274;49.022;9.338;2023-02-28T01:53:54;-0.80;1.00
20231;DHT22;10274;49.022;9.338;2023-02-28T01:56:26;-0.80;1.00
20231;DHT22;10274;49.022;9.338;2023-02-28T01:58:55;-0.90;1.00
20231;DHT22;10274;49.022;9.338;2023-02-28T02:01:23;-0.90;1.00
20231;DHT22;10274;49.022;9.338;2023-02-28T02:03:53;-1.00;49.90
20231;DHT22;10274;49.022;9.338;2023-02-28T02:06:21;-1.10;99.90
20231;DHT22;10274;49.022;9.338;2023-02-28T02:08:48;-1.30;27.40
20231;DHT22;10274;49.022;9.338;2023-02-28T02:11:18;-1.30;99.90
20231;DHT22;10274;49.022;9.338;2023-02-28T02:16:46;-1.20;99.90
20231;DHT22;10274;49.022;9.338;2023-02-28T02:19:37;-1.20;99.90
20231;DHT22;10274;49.022;9.338;2023-02-28T02:22:24;-1.20;99.90
20231;DHT22;10274;49.022;9.338;2023-02-28T02:25:16;-1.10;99.90
20231;DHT22;10274;49.022;9.338;2023-02-28T02:27:59;-1.20;99.90
20231;DHT22;10274;49.022;9.338;2023-02-28T02:33:59;-1.20;1.00
20231;DHT22;10274;49.022;9.338;2023-02-28T02:36:28;-1.20;1.00
20231;DHT22;10274;49.022;9.338;2023-02-28T02:39:00;-1.30;99.90
20231;DHT22;10274;49.022;9.338;2023-02-28T02:41:33;-1.30;99.90
20231;DHT22;10274;49.022;9.338;2023-02-28T02:44:05;-1.20;1.00
20231;DHT22;10274;49.022;9.338;2023-02-28T02:46:35;-1.10;99.90
20231;DHT22;10274;49.022;9.338;2023-02-28T02:49:08;-1.20;99.90
20231;DHT22;10274;49.022;9.338;2023-02-28T02:51:36;-1.20;99.90
20231;DHT22;10274;49.022;9.338;2023-02-28T02:54:07;-1.10;1.00
20231;DHT22;10274;49.022;9.338;2023-02-28T02:56:36;-1.10;1.00
20231;DHT22;10274;49.022;9.338;2023-02-28T02:59:09;-1.00;48.90
20231;DHT22;10274;49.022;9.338;2023-02-28T03:01:38;-1.00;1.00
20231;DHT22;10274;49.022;9.338;2023-02-28T03:04:10;-1.00;99.90
20231;DHT22;10274;49.022;9.338;2023-02-28T03:06:38;-0.90;99.90
20231;DHT22;10274;49.022;9.338;2023-02-28T03:09:05;-0.90;99.90
20231;DHT22;10274;49.022;9.338;2023-02-28T03:11:32;-0.80;99.90
20231;DHT22;10274;49.022;9.338;2023-02-28T03:14:11;-0.80;1.00
20231;DHT22;10274;49.022;9.338;2023-02-28T03:16:59;-0.70;1.00
20231;DHT22;10274;49.022;9.338;2023-02-28T03:19:41;-0.80;1.00
20231;DHT22;10274;49.022;9.338;2023-02-28T03:22:28;-0.70;1.00
20231;DHT22;10274;49.022;9.338;2023-02-28T03:25:06;-0.60;1.00
20231;DHT22;10274;49.022;9.338;2023-02-28T03:27:38;-0.50;99.90
20231;DHT22;10274;49.022;9.338;2023-02-28T03:30:10;-0.60;99.90
20231;DHT22;10274;49.022;9.338;2023-02-28T03:32:44;-0.50;99.90
20231;DHT22;10274;49.022;9.338;2023-02-28T03:35:17;-0.50;73.40
20231;DHT22;10274;49.022;9.338;2023-02-28T03:37:49;-0.50;14.70
20231;DHT22;10274;49.022;9.338;2023-02-28T03:40:20;-0.60;99.90
20231;DHT22;10274;49.022;9.338;2023-02-28T03:42:49;-1.00;99.90
20231;DHT22;10274;49.022;9.338;2023-02-28T03:45:20;-0.50;99.90
20231;DHT22;10274;49.022;9.338;2023-02-28T03:47:52;-0.40;1.00
20231;DHT22;10274;49.022;9.338;2023-02-28T03:50:23;-0.50;1.00
20231;DHT22;10274;49.022;9.338;2023-02-28T03:52:54;-0.50;1.00
20231;DHT22;10274;49.022;9.338;2023-02-28T03:55:28;-0.50;1.00
20231;DHT22;10274;49.022;9.338;2023-02-28T03:57:59;-0.40;1.00
20231;DHT22;10274;49.022;9.338;2023-02-28T04:00:31;-0.40;1.00
20231;DHT22;10274;49.022;9.338;2023-02-28T04:02:59;-0.40;1.00
20231;DHT22;10274;49.022;9.338;2023-02-28T04:05:27;-0.40;1.00
20231;DHT22;10274;49.022;9.338;2023-02-28T04:08:03;-0.50;1.00
20231;DHT22;10274;49.022;9.338;2023-02-28T04:10:30;-0.50;1.00
20231;DHT22;10274;49.022;9.338;2023-02-28T04:12:57;-0.40;1.00
20231;DHT22;10274;49.022;9.338;2023-02-28T04:15:24;-0.40;1.00
20231;DHT22;10274;49.022;9.338;2023-02-28T04:17:52;-0.40;1.00
20231;DHT22;10274;49.022;9.338;2023-02-28T04:20:19;-0.40;1.00
20231;DHT22;10274;49.022;9.338;2023-02-28T04:22:47;-0.30;1.00
20231;DHT22;10274;49.022;9.338;2023-02-28T04:25:14;-0.30;99.90
20231;DHT22;10274;49.022;9.338;2023-02-28T04:27:40;-0.40;99.90
20231;DHT22;10274;49.022;9.338;2023-02-28T04:30:10;-0.40;99.90
20231;DHT22;10274;49.022;9.338;2023-02-28T04:32:37;-0.30;1.00
20231;DHT22;10274;49.022;9.338;2023-02-28T04:35:05;-0.30;99.90
20231;DHT22;10274;49.022;9.338;2023-02-28T04:37:31;-0.30;99.90
20231;DHT22;10274;49.022;9.338;2023-02-28T04:40:01;-0.30;1.00
20231;DHT22;10274;49.022;9.338;2023-02-28T04:42:29;-0.30;99.90
20231;DHT22;10274;49.022;9.338;2023-02-28T04:45:00;-0.20;45.50
20231;DHT22;10274;49.022;9.338;2023-02-28T04:47:27;-0.20;99.90
20231;DHT22;10274;49.022;9.338;2023-02-28T04:49:54;-0.30;99.90
20231;DHT22;10274;49.022;9.338;2023-02-28T04:52:20;-0.30;99.90
20231;DHT22;10274;49.022;9.338;2023-02-28T04:54:47;-0.30;1.00
20231;DHT22;10274;49.022;9.338;2023-02-28T04:57:15;-0.30;99.90
20231;DHT22;10274;49.022;9.338;2023-02-28T04:59:42;-0.30;1.00
20231;DHT22;10274;49.022;9.338;2023-02-28T05:02:09;-0.20;1.00
20231;DHT22;10274;49.022;9.338;2023-02-28T05:04:36;-0.20;1.00
20231;DHT22;10274;49.022;9.338;2023-02-28T05:07:03;-0.30;1.00
20231;DHT22;10274;49.022;9.338;2023-02-28T05:09:30;-0.20;1.00
20231;DHT22;10274;49.022;9.338;2023-02-28T05:11:58;-0.30;1.00
20231;DHT22;10274;49.022;9.338;2023-02-28T05:14:26;-0.20;1.00
20231;DHT22;10274;49.022;9.338;2023-02-28T05:16:53;-0.30;1.00
20231;DHT22;10274;49.022;9.338;2023-02-28T05:19:20;-0.30;1.00
20231;DHT22;10274;49.022;9.338;2023-02-28T05:21:51;-0.20;1.00
20231;DHT22;10274;49.022;9.338;2023-02-28T05:24:18;-0.20;1.00
20231;DHT22;10274;49.022;9.338;2023-02-28T05:26:49;-0.20;1.00
20231;DHT22;10274;49.022;9.338;2023-02-28T05:29:17;-0.20;1.00
20231;DHT22;10274;49.022;9.338;2023-02-28T05:31:46;-0.20;7.20
20231;DHT22;10274;49.022;9.338;2023-02-28T05:34:13;-0.20;1.00
20231;DHT22;10274;49.022;9.338;2023-02-28T05:36:41;-0.20;1.00
20231;DHT22;10274;49.022;9.338;2023-02-28T05:39:08;-0.10;1.00
20231;DHT22;10274;49.022;9.338;2023-02-28T05:41:39;-0.20;1.00
20231;DHT22;10274;49.022;9.338;2023-02-28T05:44:05;-0.20;1.00
20231;DHT22;10274;49.022;9.338;2023-02-28T05:46:32;-0.20;1.00
20231;DHT22;10274;49.022;9.338;2023-02-28T05:49:00;-0.20;1.00
20231;DHT22;10274;49.022;9.338;2023-02-28T05:51:27;-0.20;6.40
20231;DHT22;10274;49.022;9.338;2023-02-28T05:53:53;-0.20;1.00
20231;DHT22;10274;49.022;9.338;2023-02-28T05:56:20;-0.20;1.00
20231;DHT22;10274;49.022;9.338;2023-02-28T05:58:47;-0.20;1.00
20231;DHT22;10274;49.022;9.338;2023-02-28T06:01:30;-0.20;1.00
20231;DHT22;10274;49.022;9.338;2023-02-28T06:03:59;-0.20;1.00
20231;DHT22;10274;49.022;9.338;2023-02-28T06:06:26;-0.20;1.00
20231;DHT22;10274;49.022;9.338;2023-02-28T06:08:53;-0.20;1.00
20231;DHT22;10274;49.022;9.338;2023-02-28T06:11:20;-0.30;1.00
20231;DHT22;10274;49.022;9.338;2023-02-28T06:13:47;-0.20;1.00
20231;DHT22;10274;49.022;9.338;2023-02-28T06:16:13;-0.20;1.00
20231;DHT22;10274;49.022;9.338;2023-02-28T06:18:40;-0.10;1.00
20231;DHT22;10274;49.022;9.338;2023-02-28T06:21:08;-0.20;99.90
20231;DHT22;10274;49.022;9.338;2023-02-28T06:23:35;-0.20;1.00
20231;DHT22;10274;49.022;9.338;2023-02-28T06:26:02;-0.20;1.00
20231;DHT22;10274;49.022;9.338;2023-02-28T06:28:28;-0.20;1.00
20231;DHT22;10274;49.022;9.338;2023-02-28T06:30:55;-0.30;1.00
20231;DHT22;10274;49.022;9.338;2023-02-28T06:33:22;-0.20;1.00
20231;DHT22;10274;49.022;9.338;2023-02-28T06:35:50;-0.20;1.00
20231;DHT22;10274;49.022;9.338;2023-02-28T06:38:18;-0.20;1.00
20231;DHT22;10274;49.022;9.338;2023-02-28T06:40:53;-0.20;1.00
20231;DHT22;10274;49.022;9.338;2023-02-28T06:43:19;-0.20;1.00
20231;DHT22;10274;49.022;9.338;2023-02-28T06:45:46;-0.20;1.00
20231;DHT22;10274;49.022;9.338;2023-02-28T06:48:13;-0.20;1.00
20231;DHT22;10274;49.022;9.338;2023-02-28T06:50:40;-0.10;1.00
20231;DHT22;10274;49.022;9.338;2023-02-28T06:53:06;-0.20;1.00
20231;DHT22;10274;49.022;9.338;2023-02-28T06:55:34;-0.10;1.00
20231;DHT22;10274;49.022;9.338;2023-02-28T06:58:04;-0.10;1.00
20231;DHT22;10274;49.022;9.338;2023-02-28T07:00:40;0.00;1.00
20231;DHT22;10274;49.022;9.338;2023-02-28T07:03:06;0.00;1.00
20231;DHT22;10274;49.022;9.338;2023-02-28T07:05:34;0.00;1.00
20231;DHT22;10274;49.022;9.338;2023-02-28T07:08:01;0.00;99.90
20231;DHT22;10274;49.022;9.338;2023-02-28T07:10:28;0.10;99.90
20231;DHT22;10274;49.022;9.338;2023-02-28T07:12:56;0.20;1.00
20231;DHT22;10274;49.022;9.338;2023-02-28T07:15:23;0.30;99.90
20231;DHT22;10274;49.022;9.338;2023-02-28T07:17:49;0.30;99.90
20231;DHT22;10274;49.022;9.338;2023-02-28T07:20:16;0.20;37.10
20231;DHT22;10274;49.022;9.338;2023-02-28T07:22:43;0.30;99.90
20231;DHT22;10274;49.022;9.338;2023-02-28T07:25:10;0.40;1.00
20231;DHT22;10274;49.022;9.338;2023-02-28T07:27:36;0.90;99.90
20231;DHT22;10274;49.022;9.338;2023-02-28T07:30:06;1.20;99.90
20231;DHT22;10274;49.022;9.338;2023-02-28T07:32:33;1.10;1.00
20231;DHT22;10274;49.022;9.338;2023-02-28T07:35:03;1.40;1.00
20231;DHT22;10274;49.022;9.338;2023-02-28T07:37:30;1.40;1.00
20231;DHT22;10274;49.022;9.338;2023-02-28T07:40:02;1.50;99.90
20231;DHT22;10274;49.022;9.338;2023-02-28T07:42:31;1.60;1.00
20231;DHT22;10274;49.022;9.338;2023-02-28T07:44:58;1.70;1.00
20231;DHT22;10274;49.022;9.338;2023-02-28T07:47:26;1.80;1.00
20231;DHT22;10274;49.022;9.338;2023-02-28T07:49:55;1.60;1.00
20231;DHT22;10274;49.022;9.338;2023-02-28T07:52:22;1.00;1.00
20231;DHT22;10274;49.022;9.338;2023-02-28T07:54:49;1.50;1.00
20231;DHT22;10274;49.022;9.338;2023-02-28T07:57:16;2.20;1.00
20231;DHT22;10274;49.022;9.338;2023-02-28T07:59:43;2.00;99.90
20231;DHT22;10274;49.022;9.338;2023-02-28T08:02:12;2.40;99.90
20231;DHT22;10274;49.022;9.338;2023-02-28T08:04:41;2.10;99.90
20231;DHT22;10274;49.022;9.338;2023-02-28T08:07:08;2.80;1.00
20231;DHT22;10274;49.022;9.338;2023-02-28T08:09:38;2.90;1.00
20231;DHT22;10274;49.022;9.338;2023-02-28T08:12:05;3.60;1.00
20231;DHT22;10274;49.022;9.338;2023-02-28T08:14:33;3.10;1.00
20231;DHT22;10274;49.022;9.338;2023-02-28T08:16:59;3.20;99.90
20231;DHT22;10274;49.022;9.338;2023-02-28T08:19:26;3.30;99.90
20231;DHT22;10274;49.022;9.338;2023-02-28T08:21:55;3.60;99.90
20231;DHT22;10274;49.022;9.338;2023-02-28T08:24:22;3.90;99.90
20231;DHT22;10274;49.022;9.338;2023-02-28T08:26:49;4.70;1.00
20231;DHT22;10274;49.022;9.338;2023-02-28T08:29:15;5.40;1.00
20231;DHT22;10274;49.022;9.338;2023-02-28T08:31:42;5.80;1.00
20231;DHT22;10274;49.022;9.338;2023-02-28T08:34:11;5.30;1.00
20231;DHT22;10274;49.022;9.338;2023-02-28T08:36:38;4.70;1.00
20231;DHT22;10274;49.022;9.338;2023-02-28T08:39:07;3.90;1.00
20231;DHT22;10274;49.022;9.338;2023-02-28T08:41:34;4.70;1.00
20231;DHT22;10274;49.022;9.338;2023-02-28T08:44:01;5.70;1.00
20231;DHT22;10274;49.022;9.338;2023-02-28T08:46:28;6.20;1.00
20231;DHT22;10274;49.022;9.338;2023-02-28T08:48:55;6.50;1.00
20231;DHT22;10274;49.022;9.338;2023-02-28T08:51:25;5.80;99.90
20231;DHT22;10274;49.022;9.338;2023-02-28T08:53:53;6.00;99.90
20231;DHT22;10274;49.022;9.338;2023-02-28T08:56:21;6.00;99.90
20231;DHT22;10274;49.022;9.338;2023-02-28T08:58:49;5.90;99.90
20231;DHT22;10274;49.022;9.338;2023-02-28T09:01:18;5.70;99.90
20231;DHT22;10274;49.022;9.338;2023-02-28T09:03:46;4.90;99.90
20231;DHT22;10274;49.022;9.338;2023-02-28T09:06:14;4.80;99.90
20231;DHT22;10274;49.022;9.338;2023-02-28T09:08:41;5.30;99.90
20231;DHT22;10274;49.022;9.338;2023-02-28T09:11:09;5.00;99.90
20231;DHT22;10274;49.022;9.338;2023-02-28T09:13:38;5.80;99.90
20231;DHT22;10274;49.022;9.338;2023-02-28T09:16:07;6.40;99.90
20231;DHT22;10274;49.022;9.338;2023-02-28T09:18:34;6.80;99.90
20231;DHT22;10274;49.022;9.338;2023-02-28T09:21:03;7.80;99.90
20231;DHT22;10274;49.022;9.338;2023-02-28T09:23:30;6.80;99.90
20231;DHT22;10274;49.022;9.338;2023-02-28T09:25:57;6.00;99.90
20231;DHT22;10274;49.022;9.338;2023-02-28T09:28:23;6.10;99.90
20231;DHT22;10274;49.022;9.338;2023-02-28T09:30:53;5.40;99.90
20231;DHT22;10274;49.022;9.338;2023-02-28T09:33:20;4.90;99.90
20231;DHT22;10274;49.022;9.338;2023-02-28T09:35:48;4.60;99.90
20231;DHT22;10274;49.022;9.338;2023-02-28T09:38:15;5.50;99.90
20231;DHT22;10274;49.022;9.338;2023-02-28T09:40:47;5.00;99.90
20231;DHT22;10274;49.022;9.338;2023-02-28T09:43:16;3.70;99.90
20231;DHT22;10274;49.022;9.338;2023-02-28T09:45:50;3.60;99.90
20231;DHT22;10274;49.022;9.338;2023-02-28T09:48:23;4.50;99.90
20231;DHT22;10274;49.022;9.338;2023-02-28T09:50:54;4.80;99.90
20231;DHT22;10274;49.022;9.338;2023-02-28T09:53:26;4.30;99.90
20231;DHT22;10274;49.022;9.338;2023-02-28T09:56:01;4.60;99.90
20231;DHT22;10274;49.022;9.338;2023-02-28T09:58:33;4.50;99.90
20231;DHT22;10274;49.022;9.338;2023-02-28T10:01:05;5.30;99.90
20231;DHT22;10274;49.022;9.338;2023-02-28T10:03:36;5.30;99.90
20231;DHT22;10274;49.022;9.338;2023-02-28T10:06:11;6.30;99.90
20231;DHT22;10274;49.022;9.338;2023-02-28T10:08:42;6.30;99.90
20231;DHT22;10274;49.022;9.338;2023-02-28T10:11:15;6.20;99.90
20231;DHT22;10274;49.022;9.338;2023-02-28T10:13:54;6.00;99.90
20231;DHT22;10274;49.022;9.338;2023-02-28T10:16:30;7.20;99.90
20231;DHT22;10274;49.022;9.338;2023-02-28T10:19:03;8.80;99.90
20231;DHT22;10274;49.022;9.338;2023-02-28T10:21:35;8.30;99.90
20231;DHT22;10274;49.022;9.338;2023-02-28T10:24:05;6.20;99.90
20231;DHT22;10274;49.022;9.338;2023-02-28T10:26:37;5.60;99.90
20231;DHT22;10274;49.022;9.338;2023-02-28T10:29:04;5.40;99.90
20231;DHT22;10274;49.022;9.338;2023-02-28T10:31:30;4.50;99.90
20231;DHT22;10274;49.022;9.338;2023-02-28T10:33:57;4.70;99.90
20231;DHT22;10274;49.022;9.338;2023-02-28T10:36:25;4.80;99.90
20231;DHT22;10274;49.022;9.338;2023-02-28T10:38:52;4.90;99.90
20231;DHT22;10274;49.022;9.338;2023-02-28T10:41:28;5.30;99.90
20231;DHT22;10274;49.022;9.338;2023-02-28T10:44:13;5.00;99.90
20231;DHT22;10274;49.022;9.338;2023-02-28T10:46:40;5.80;99.90
20231;DHT22;10274;49.022;9.338;2023-02-28T10:49:13;5.90;99.90
20231;DHT22;10274;49.022;9.338;2023-02-28T10:51:42;5.90;99.90
20231;DHT22;10274;49.022;9.338;2023-02-28T10:54:15;6.50;99.90
20231;DHT22;10274;49.022;9.338;2023-02-28T10:56:43;8.40;99.90
20231;DHT22;10274;49.022;9.338;2023-02-28T10:59:28;7.60;99.90
20231;DHT22;10274;49.022;9.338;2023-02-28T11:01:56;6.80;99.90
20231;DHT22;10274;49.022;9.338;2023-02-28T11:04:35;6.00;99.90
20231;DHT22;10274;49.022;9.338;2023-02-28T11:07:17;6.00;99.90
20231;DHT22;10274;49.022;9.338;2023-02-28T11:09:46;5.90;99.90
20231;DHT22;10274;49.022;9.338;2023-02-28T11:12:21;5.90;99.90
20231;DHT22;10274;49.022;9.338;2023-02-28T11:14:50;5.40;99.90
20231;DHT22;10274;49.022;9.338;2023-02-28T11:17:21;5.90;99.90
20231;DHT22;10274;49.022;9.338;2023-02-28T11:19:51;5.30;99.90
20231;DHT22;10274;49.022;9.338;2023-02-28T11:22:23;7.10;99.90
20231;DHT22;10274;49.022;9.338;2023-02-28T11:24:53;7.50;99.90
20231;DHT22;10274;49.022;9.338;2023-02-28T11:27:45;7.30;99.90
20231;DHT22;10274;49.022;9.338;2023-02-28T11:30:32;8.00;99.90
20231;DHT22;10274;49.022;9.338;2023-02-28T11:33:00;8.10;99.90
20231;DHT22;10274;49.022;9.338;2023-02-28T11:35:30;7.80;99.90
20231;DHT22;10274;49.022;9.338;2023-02-28T11:37:59;7.60;99.90
20231;DHT22;10274;49.022;9.338;2023-02-28T11:40:31;8.20;99.90
20231;DHT22;10274;49.022;9.338;2023-02-28T11:45:44;9.00;99.90
20231;DHT22;10274;49.022;9.338;2023-02-28T11:48:18;8.60;86.10
20231;DHT22;10274;49.022;9.338;2023-02-28T11:50:54;7.40;98.10
20231;DHT22;10274;49.022;9.338;2023-02-28T11:53:41;8.50;92.30
20231;DHT22;10274;49.022;9.338;2023-02-28T11:56:15;9.70;95.60
20231;DHT22;10274;49.022;9.338;2023-02-28T11:58:50;9.90;26.20
20231;DHT22;10274;49.022;9.338;2023-02-28T12:01:40;10.40;40.60
20231;DHT22;10274;49.022;9.338;2023-02-28T12:04:21;9.70;6.00
20231;DHT22;10274;49.022;9.338;2023-02-28T12:06:56;9.30;8.20
20231;DHT22;10274;49.022;9.338;2023-02-28T12:09:41;9.10;17.40
20231;DHT22;10274;49.022;9.338;2023-02-28T12:12:21;9.50;21.90
20231;DHT22;10274;49.022;9.338;2023-02-28T12:14:57;9.50;9.20
20231;DHT22;10274;49.022;9.338;2023-02-28T12:17:38;9.40;5.10
20231;DHT22;10274;49.022;9.338;2023-02-28T12:20:17;9.60;1.00
20231;DHT22;10274;49.022;9.338;2023-02-28T12:22:54;9.50;1.00
20231;DHT22;10274;49.022;9.338;2023-02-28T12:28:27;8.90;1.00
20231;DHT22;10274;49.022;9.338;2023-02-28T12:30:59;9.20;1.00
20231;DHT22;10274;49.022;9.338;2023-02-28T12:33:32;9.70;1.00
20231;DHT22;10274;49.022;9.338;2023-02-28T12:36:03;10.10;1.00
20231;DHT22;10274;49.022;9.338;2023-02-28T12:38:37;10.80;1.00
20231;DHT22;10274;49.022;9.338;2023-02-28T12:41:10;10.60;1.00
20231;DHT22;10274;49.022;9.338;2023-02-28T12:43:43;10.70;1.00
20231;DHT22;10274;49.022;9.338;2023-02-28T12:46:14;10.30;1.00
20231;DHT22;10274;49.022;9.338;2023-02-28T12:48:44;9.80;1.00
20231;DHT22;10274;49.022;9.338;2023-02-28T12:51:13;10.00;1.00
20231;DHT22;10274;49.022;9.338;2023-02-28T12:53:50;9.40;1.00
20231;DHT22;10274;49.022;9.338;2023-02-28T12:56:23;9.70;1.00
20231;DHT22;10274;49.022;9.338;2023-02-28T12:58:58;10.10;1.00
20231;DHT22;10274;49.022;9.338;2023-02-28T13:01:56;9.60;1.00
20231;DHT22;10274;49.022;9.338;2023-02-28T13:04:42;10.10;1.00
20231;DHT22;10274;49.022;9.338;2023-02-28T13:07:43;9.80;1.00
20231;DHT22;10274;49.022;9.338;2023-02-28T13:10:15;10.70;1.00
20231;DHT22;10274;49.022;9.338;2023-02-28T13:12:48;10.80;1.00
20231;DHT22;10274;49.022;9.338;2023-02-28T13:15:20;10.50;1.00
20231;DHT22;10274;49.022;9.338;2023-02-28T13:17:51;10.20;1.00
20231;DHT22;10274;49.022;9.338;2023-02-28T13:20:20;10.20;1.00
20231;DHT22;10274;49.022;9.338;2023-02-28T13:22:48;9.70;1.00
20231;DHT22;10274;49.022;9.338;2023-02-28T13:34:35;10.70;1.00
20231;DHT22;10274;49.022;9.338;2023-02-28T13:37:32;10.90;1.00
20231;DHT22;10274;49.022;9.338;2023-02-28T13:40:22;11.50;1.00
20231;DHT22;10274;49.022;9.338;2023-02-28T13:42:52;10.00;1.00
20231;DHT22;10274;49.022;9.338;2023-02-28T13:45:27;10.70;1.00
20231;DHT22;10274;49.022;9.338;2023-02-28T13:47:59;11.70;1.00
20231;DHT22;10274;49.022;9.338;2023-02-28T13:50:32;11.60;1.00
20231;DHT22;10274;49.022;9.338;2023-02-28T13:53:33;11.10;1.00
20231;DHT22;10274;49.022;9.338;2023-02-28T13:56:16;12.20;1.00
20231;DHT22;10274;49.022;9.338;2023-02-28T13:58:53;11.50;1.00
20231;DHT22;10274;49.022;9.338;2023-02-28T14:01:31;11.20;1.00
20231;DHT22;10274;49.022;9.338;2023-02-28T14:04:19;11.20;1.00
20231;DHT22;10274;49.022;9.338;2023-02-28T14:06:53;10.60;1.00
20231;DHT22;10274;49.022;9.338;2023-02-28T14:09:24;11.60;1.00
20231;DHT22;10274;49.022;9.338;2023-02-28T14:11:51;12.30;1.00
20231;DHT22;10274;49.022;9.338;2023-02-28T14:14:55;12.40;1.00
20231;DHT22;10274;49.022;9.338;2023-02-28T14:17:25;11.90;1.00
20231;DHT22;10274;49.022;9.338;2023-02-28T14:19:54;11.90;1.00
20231;DHT22;10274;49.022;9.338;2023-02-28T14:22:43;11.60;1.00
20231;DHT22;10274;49.022;9.338;2023-02-28T14:25:22;11.40;1.00
20231;DHT22;10274;49.022;9.338;2023-02-28T14:27:58;10.80;1.00
20231;DHT22;10274;49.022;9.338;2023-02-28T14:30:43;10.30;1.00
20231;DHT22;10274;49.022;9.338;2023-02-28T14:33:22;10.70;1.00
20231;DHT22;10274;49.022;9.338;2023-02-28T14:36:14;11.00;1.00
20231;DHT22;10274;49.022;9.338;2023-02-28T14:38:46;11.20;1.00
20231;DHT22;10274;49.022;9.338;2023-02-28T14:41:21;10.90;1.00
20231;DHT22;10274;49.022;9.338;2023-02-28T14:43:51;11.20;1.00
20231;DHT22;10274;49.022;9.338;2023-02-28T14:46:18;11.00;1.00
20231;DHT22;10274;49.022;9.338;2023-02-28T14:48:46;10.40;1.00
20231;DHT22;10274;49.022;9.338;2023-02-28T14:51:18;10.00;1.00
20231;DHT22;10274;49.022;9.338;2023-02-28T14:53:49;9.90;1.00
20231;DHT22;10274;49.022;9.338;2023-02-28T14:56:21;9.60;1.00
20231;DHT22;10274;49.022;9.338;2023-02-28T14:58:51;9.10;1.00
20231;DHT22;10274;49.022;9.338;2023-02-28T15:01:20;9.10;1.00
20231;DHT22;10274;49.022;9.338;2023-02-28T15:03:47;9.20;1.00
20231;DHT22;10274;49.022;9.338;2023-02-28T15:06:17;9.20;1.00
20231;DHT22;10274;49.022;9.338;2023-02-28T15:08:44;8.90;1.00
20231;DHT22;10274;49.022;9.338;2023-02-28T15:11:14;8.80;1.00
20231;DHT22;10274;49.022;9.338;2023-02-28T15:13:46;8.90;1.00
20231;DHT22;10274;49.022;9.338;2023-02-28T15:16:17;8.70;1.00
20231;DHT22;10274;49.022;9.338;2023-02-28T15:18:48;8.80;1.00
20231;DHT22;10274;49.022;9.338;2023-02-28T15:21:18;8.80;1.00
20231;DHT22;10274;49.022;9.338;2023-02-28T15:23:49;8.70;1.00
20231;DHT22;10274;49.022;9.338;2023-02-28T15:26:18;8.70;1.00
20231;DHT22;10274;49.022;9.338;2023-02-28T15:28:46;8.50;1.00
20231;DHT22;10274;49.022;9.338;2023-02-28T15:31:20;8.10;1.00
20231;DHT22;10274;49.022;9.338;2023-02-28T15:33:53;7.80;1.00
20231;DHT22;10274;49.022;9.338;2023-02-28T15:36:25;7.80;1.00
20231;DHT22;10274;49.022;9.338;2023-02-28T15:38:53;7.80;1.00
20231;DHT22;10274;49.022;9.338;2023-02-28T15:41:28;7.30;1.00
20231;DHT22;10274;49.022;9.338;2023-02-28T15:44:14;7.50;1.00
20231;DHT22;10274;49.022;9.338;2023-02-28T15:46:44;7.80;1.00
20231;DHT22;10274;49.022;9.338;2023-02-28T15:49:18;7.60;1.00
20231;DHT22;10274;49.022;9.338;2023-02-28T15:51:49;7.80;1.00
20231;DHT22;10274;49.022;9.338;2023-02-28T15:54:20;7.60;1.00
20231;DHT22;10274;49.022;9.338;2023-02-28T15:56:51;7.30;1.00
20231;DHT22;10274;49.022;9.338;2023-02-28T15:59:20;7.40;1.00
20231;DHT22;10274;49.022;9.338;2023-02-28T16:02:03;7.40;1.00
20231;DHT22;10274;49.022;9.338;2023-02-28T16:04:30;7.40;1.00
20231;DHT22;10274;49.022;9.338;2023-02-28T16:07:12;7.20;1.00
20231;DHT22;10274;49.022;9.338;2023-02-28T16:09:39;7.00;1.00
20231;DHT22;10274;49.022;9.338;2023-02-28T16:12:09;7.00;1.00
20231;DHT22;10274;49.022;9.338;2023-02-28T16:14:38;6.70;1.00
20231;DHT22;10274;49.022;9.338;2023-02-28T16:17:08;6.50;1.00
20231;DHT22;10274;49.022;9.338;2023-02-28T16:19:39;6.40;1.00
20231;DHT22;10274;49.022;9.338;2023-02-28T16:22:08;6.10;1.00
20231;DHT22;10274;49.022;9.338;2023-02-28T16:24:35;6.00;1.00
20231;DHT22;10274;49.022;9.338;2023-02-28T16:27:02;5.80;1.00
20231;DHT22;10274;49.022;9.338;2023-02-28T16:29:32;5.70;1.00
20231;DHT22;10274;49.022;9.338;2023-02-28T16:32:00;5.50;1.00